Fenton, Michigan
Current Conditions -  °F | °C
As of 2:53 PM on Friday 21 Nov 2014 (Local Time) from KFNT Reporting Station
Clear Clear  
Wind Chill: 18°   Ceiling: Unl
Heat Index: 26°   Visibility: 10mi
Dew Point:   Wind: 8mph
Humidity: 49%   Direction: 240°WSW
Pressure: 30.41"   Gusts: NA
Location:  42.79°N, 83.7°W
Report Text: KFNT 211953Z 24007KT 10SM CLR M03/M13 A3041 RMK AO2 SLP312 T10331128
Loading
Personal Weather Stations






























Interactive Weather Map New forecast layout! Learn more

10-Day Weather Forecast

Advertisements
Track Severe Weather on mobile